Time;durP1;ratioP1;P1;durP2;ratioP2;P2;SDS_P1;SDS_P2;PMS_P1;PMS_P2;Temp;Humidity;BMP_temperature;BMP_pressure;BME280_temperature;BME280_humidity;BME280_pressure;Samples;Min_cycle;Max_cycle;Signal;HPM_P1;HPM_P2
2022/10/02 00:02:13;;;;;;;20.40;3.92;;;11.50;99.90;;;;;;4950940;28;20071;-73
2022/10/02 00:05:06;;;;;;;18.35;3.83;;;11.50;99.90;;;;;;4950899;28;20050;-73
2022/10/02 00:07:43;;;;;;;21.63;4.13;;;11.60;99.90;;;;;;4944529;28;20082;-73
2022/10/02 00:10:16;;;;;;;19.58;3.80;;;11.70;99.90;;;;;;4951798;28;20097;-73
2022/10/02 00:12:43;;;;;;;;;;;11.80;99.90;;;;;;4962297;28;20112;-74
2022/10/02 00:15:23;;;;;;;16.45;3.63;;;11.80;99.90;;;;;;4949493;28;19926;-74
2022/10/02 00:17:52;;;;;;;10.82;2.97;;;11.90;99.90;;;;;;4947924;28;20053;-74
2022/10/02 00:20:23;;;;;;;19.23;3.33;;;12.00;99.90;;;;;;4956077;28;20047;-73
2022/10/02 00:22:57;;;;;;;14.35;2.60;;;12.10;99.90;;;;;;4969614;28;20049;-74
2022/10/02 00:26:11;;;;;;;14.60;2.90;;;12.20;99.90;;;;;;4940261;28;20099;-74
2022/10/02 00:28:49;;;;;;;13.00;2.80;;;12.20;99.90;;;;;;4890475;29;20061;-73
2022/10/02 00:32:09;;;;;;;11.60;2.88;;;12.10;99.90;;;;;;4878519;29;20052;-74
2022/10/02 00:35:02;;;;;;;11.88;2.50;;;12.10;99.90;;;;;;4869713;29;20080;-74
2022/10/02 00:37:35;;;;;;;;;;;12.10;99.90;;;;;;4947409;28;20065;-73
2022/10/02 00:40:41;;;;;;;12.48;2.58;;;12.00;99.90;;;;;;4953850;28;19928;-74
2022/10/02 00:43:41;;;;;;;13.52;2.72;;;12.00;99.90;;;;;;4952363;28;20039;-73
2022/10/02 00:46:18;;;;;;;17.45;3.28;;;11.90;99.90;;;;;;4949272;28;20505;-73
2022/10/02 00:48:59;;;;;;;14.90;2.40;;;11.80;99.90;;;;;;4952398;28;20054;-74
2022/10/02 00:51:43;;;;;;;15.90;2.83;;;11.80;99.90;;;;;;4960995;28;20497;-74
2022/10/02 00:54:43;;;;;;;13.18;3.25;;;11.80;99.90;;;;;;4952195;28;20034;-74
2022/10/02 00:57:27;;;;;;;14.63;3.00;;;11.80;99.90;;;;;;4936256;28;20661;-74
2022/10/02 01:00:09;;;;;;;11.73;3.10;;;11.80;99.90;;;;;;4948994;28;20052;-73
2022/10/02 01:02:35;;;;;;;14.65;2.83;;;11.80;99.90;;;;;;4951892;28;20043;-74
2022/10/02 01:05:03;;;;;;;11.65;2.90;;;11.80;99.90;;;;;;4954171;28;20152;-73
2022/10/02 01:07:29;;;;;;;12.23;2.53;;;11.80;99.90;;;;;;4950761;28;20054;-74
2022/10/02 01:09:54;;;;;;;15.52;2.75;;;11.80;99.90;;;;;;4965043;28;20043;-73
2022/10/02 01:12:21;;;;;;;14.80;2.72;;;11.80;99.90;;;;;;4968200;28;20054;-73
2022/10/02 01:14:47;;;;;;;9.65;2.22;;;11.80;99.90;;;;;;4948930;28;20398;-73
2022/10/02 01:17:33;;;;;;;10.70;2.25;;;11.70;99.90;;;;;;4969050;28;20047;-73
2022/10/02 01:20:01;;;;;;;16.73;2.63;;;11.70;99.90;;;;;;4952815;28;20050;-74
2022/10/02 01:22:48;;;;;;;13.88;2.60;;;11.70;99.90;;;;;;4950621;28;20066;-74
2022/10/02 01:25:14;;;;;;;11.07;2.60;;;11.70;99.90;;;;;;4950940;28;20057;-73
2022/10/02 01:27:40;;;;;;;12.23;3.13;;;11.70;99.90;;;;;;4951809;28;20051;-74
2022/10/02 01:30:09;;;;;;;11.95;2.38;;;11.70;99.90;;;;;;4947084;28;20085;-73
2022/10/02 01:32:39;;;;;;;11.77;2.63;;;11.70;99.90;;;;;;4969965;28;20050;-73
2022/10/02 01:35:06;;;;;;;16.38;3.00;;;11.70;99.90;;;;;;4948339;28;20126;-74
2022/10/02 01:37:35;;;;;;;15.48;2.97;;;11.80;99.90;;;;;;4954450;28;20061;-73
2022/10/02 01:40:10;;;;;;;12.02;3.15;;;11.80;99.90;;;;;;4949544;28;20050;-73
2022/10/02 01:42:37;;;;;;;15.80;2.92;;;11.90;99.90;;;;;;4948119;28;20138;-73
2022/10/02 01:45:05;;;;;;;13.50;3.17;;;11.90;99.90;;;;;;4952959;28;20050;-73
2022/10/02 01:47:42;;;;;;;14.98;3.00;;;12.00;99.90;;;;;;4934809;28;20455;-73
2022/10/02 01:50:24;;;;;;;16.38;3.05;;;12.10;99.90;;;;;;4935455;28;20082;-73
2022/10/02 01:53:11;;;;;;;17.15;2.88;;;12.10;99.90;;;;;;4949403;28;20047;-74
2022/10/02 01:56:02;;;;;;;16.98;3.78;;;12.10;99.90;;;;;;4946642;28;20043;-73
2022/10/02 01:58:41;;;;;;;16.05;3.17;;;12.10;99.90;;;;;;4953045;28;20046;-74
2022/10/02 02:01:26;;;;;;;15.00;3.08;;;12.00;99.90;;;;;;4951180;28;20173;-73
2022/10/02 02:03:52;;;;;;;17.20;3.50;;;12.00;99.90;;;;;;4959987;28;20047;-73
2022/10/02 02:06:27;;;;;;;16.00;3.42;;;12.00;99.90;;;;;;4950068;28;20077;-73
2022/10/02 02:09:06;;;;;;;19.10;3.53;;;12.00;99.90;;;;;;4949391;28;20054;-73
2022/10/02 02:11:34;;;;;;;24.55;3.83;;;12.00;99.90;;;;;;4961573;28;20050;-74
2022/10/02 02:14:05;;;;;;;16.08;3.13;;;11.90;99.90;;;;;;4949546;28;20129;-74
2022/10/02 02:16:35;;;;;;;18.92;3.30;;;11.90;99.90;;;;;;4961391;28;20046;-74
2022/10/02 02:19:13;;;;;;;20.25;3.58;;;11.80;99.90;;;;;;4947358;28;21919;-74
2022/10/02 02:21:43;;;;;;;16.55;3.25;;;11.80;99.90;;;;;;4949970;28;20047;-74
2022/10/02 02:24:14;;;;;;;20.88;4.40;;;11.70;99.90;;;;;;4948185;28;20071;-74
2022/10/02 02:26:42;;;;;;;19.95;3.35;;;11.70;99.90;;;;;;4948844;28;20073;-74
2022/10/02 02:29:09;;;;;;;20.25;3.83;;;11.70;99.90;;;;;;4949942;28;20046;-74
2022/10/02 02:31:51;;;;;;;22.40;3.65;;;11.70;99.90;;;;;;4953827;28;20049;-74
2022/10/02 02:34:22;;;;;;;23.08;4.00;;;11.70;99.90;;;;;;4949385;28;20049;-74
2022/10/02 02:36:52;;;;;;;16.15;3.40;;;11.70;99.90;;;;;;4951216;28;20401;-74
2022/10/02 02:39:25;;;;;;;20.30;3.47;;;11.80;99.90;;;;;;4952887;28;20131;-74
2022/10/02 02:41:56;;;;;;;19.80;3.65;;;11.80;99.90;;;;;;4968342;28;20042;-74
2022/10/02 02:44:29;;;;;;;14.38;3.28;;;11.80;99.90;;;;;;4948233;28;20050;-74
2022/10/02 02:47:03;;;;;;;15.60;3.60;;;11.80;99.90;;;;;;4953007;28;20058;-74
2022/10/02 02:49:34;;;;;;;14.75;3.60;;;11.80;99.90;;;;;;4936970;28;20050;-74
2022/10/02 02:52:02;;;;;;;21.92;3.20;;;11.80;99.90;;;;;;4950470;28;20034;-74
2022/10/02 02:54:41;;;;;;;17.55;3.40;;;11.80;99.90;;;;;;4965676;28;20505;-74
2022/10/02 02:57:09;;;;;;;11.45;3.30;;;11.80;99.90;;;;;;4938460;28;20050;-74
2022/10/02 02:59:37;;;;;;;19.42;3.80;;;11.80;99.90;;;;;;4947742;28;20543;-74
2022/10/02 03:02:03;;;;;;;17.20;3.13;;;11.80;99.90;;;;;;4950812;28;20039;-74
2022/10/02 03:04:28;;;;;;;16.42;3.22;;;11.90;99.90;;;;;;4950949;28;20044;-73
2022/10/02 03:07:01;;;;;;;17.15;3.00;;;11.90;99.90;;;;;;4950401;28;20532;-74
2022/10/02 03:09:31;;;;;;;12.07;2.92;;;11.90;99.90;;;;;;4963403;28;20039;-74
2022/10/02 03:12:18;;;;;;;14.25;2.70;;;11.90;99.90;;;;;;4947666;28;20043;-73
2022/10/02 03:15:02;;;;;;;11.95;2.38;;;11.90;99.90;;;;;;4948948;28;20038;-74
2022/10/02 03:17:34;;;;;;;12.70;2.30;;;11.80;99.90;;;;;;4949285;28;20393;-73
2022/10/02 03:20:15;;;;;;;11.55;2.90;;;11.90;99.90;;;;;;4964182;28;20046;-73
2022/10/02 03:23:05;;;;;;;14.00;2.70;;;11.90;99.90;;;;;;4949464;28;20058;-73
2022/10/02 03:26:03;;;;;;;12.68;2.35;;;11.90;99.90;;;;;;4962670;28;20047;-73
2022/10/02 03:28:49;;;;;;;15.52;2.72;;;11.90;99.90;;;;;;4949131;28;20453;-73
2022/10/02 03:31:17;;;;;;;9.60;1.92;;;11.90;99.90;;;;;;4956635;28;20035;-73
2022/10/02 03:33:43;;;;;;;12.18;2.10;;;11.90;99.90;;;;;;4958516;28;20074;-73
2022/10/02 03:36:10;;;;;;;17.13;2.40;;;11.90;99.90;;;;;;4957269;28;20051;-73
2022/10/02 03:38:37;;;;;;;12.32;2.25;;;11.90;99.90;;;;;;4955616;28;20093;-73
2022/10/02 03:41:03;;;;;;;12.82;2.20;;;11.90;99.90;;;;;;4949134;28;20047;-73
2022/10/02 03:43:29;;;;;;;14.43;2.40;;;11.90;99.90;;;;;;4958524;28;20401;-73
2022/10/02 03:45:55;;;;;;;14.85;2.60;;;11.90;99.90;;;;;;4953492;28;20078;-73
2022/10/02 03:48:21;;;;;;;8.68;2.10;;;11.80;99.90;;;;;;4955883;28;20086;-73
2022/10/02 03:50:49;;;;;;;11.93;2.17;;;11.80;99.90;;;;;;4950514;28;20039;-73
2022/10/02 03:53:21;;;;;;;10.27;2.20;;;11.80;99.90;;;;;;4951121;28;20051;-73
2022/10/02 03:55:59;;;;;;;14.63;2.60;;;11.80;99.90;;;;;;4960868;28;20146;-73
2022/10/02 03:58:25;;;;;;;16.20;2.35;;;11.80;99.90;;;;;;4973760;28;20049;-73
2022/10/02 04:01:03;;;;;;;12.98;2.38;;;11.70;99.90;;;;;;4957606;28;20042;-73
2022/10/02 04:03:52;;;;;;;14.13;2.25;;;11.70;99.90;;;;;;4959088;28;20053;-73
2022/10/02 04:06:44;;;;;;;20.10;2.80;;;11.60;99.90;;;;;;4957714;28;20073;-74
2022/10/02 04:09:19;;;;;;;16.90;2.78;;;11.70;99.90;;;;;;4957159;28;20129;-74
2022/10/02 04:12:20;;;;;;;16.25;3.10;;;11.60;99.90;;;;;;4964032;28;20042;-73
2022/10/02 04:14:56;;;;;;;13.73;2.58;;;11.70;99.90;;;;;;4936481;28;20043;-73
2022/10/02 04:17:37;;;;;;;17.55;3.28;;;11.70;99.90;;;;;;4962200;28;20039;-73
2022/10/02 04:20:09;;;;;;;16.80;2.67;;;11.70;99.90;;;;;;4953422;28;20050;-73
2022/10/02 04:22:41;;;;;;;17.45;2.75;;;11.70;99.90;;;;;;4957942;28;20051;-73
2022/10/02 04:25:32;;;;;;;17.15;2.92;;;11.70;99.90;;;;;;4960953;28;20054;-73
2022/10/02 04:28:05;;;;;;;12.02;2.92;;;11.70;99.90;;;;;;4952476;28;20502;-73
2022/10/02 04:30:31;;;;;;;18.85;3.20;;;11.60;99.90;;;;;;4973368;28;20101;-73
2022/10/02 04:33:16;;;;;;;22.48;2.90;;;11.60;99.90;;;;;;4977080;28;20124;-73
2022/10/02 04:36:03;;;;;;;18.40;3.40;;;11.60;99.90;;;;;;4957307;28;20126;-73
2022/10/02 04:39:03;;;;;;;19.48;3.28;;;11.60;99.90;;;;;;4949062;28;20979;-73
2022/10/02 04:41:44;;;;;;;19.10;3.13;;;11.60;99.90;;;;;;4956752;28;20402;-73
2022/10/02 04:44:22;;;;;;;17.80;2.95;;;11.60;99.90;;;;;;4959533;28;20046;-73
2022/10/02 04:46:47;;;;;;;16.85;3.20;;;11.60;99.90;;;;;;4943124;28;20498;-73
2022/10/02 04:49:51;;;;;;;17.75;3.28;;;11.60;99.90;;;;;;4974279;28;20047;-73
2022/10/02 04:52:31;;;;;;;20.83;3.33;;;11.60;99.90;;;;;;4941846;28;20047;-73
2022/10/02 04:55:07;;;;;;;20.98;3.35;;;11.50;99.90;;;;;;4964445;28;20066;-73
2022/10/02 04:57:56;;;;;;;19.08;3.33;;;11.50;99.90;;;;;;4954609;28;20058;-73
2022/10/02 05:00:24;;;;;;;21.10;3.60;;;11.50;99.90;;;;;;4953939;28;20058;-73
2022/10/02 05:03:13;;;;;;;16.08;3.15;;;11.50;99.90;;;;;;4939531;28;20055;-73
2022/10/02 05:06:03;;;;;;;19.33;3.38;;;11.50;99.90;;;;;;4957115;28;20097;-73
2022/10/02 05:09:13;;;;;;;20.17;3.67;;;11.50;99.90;;;;;;4957342;28;20091;-73
2022/10/02 05:11:51;;;;;;;25.00;3.58;;;11.50;99.90;;;;;;4929009;29;20044;-73
2022/10/02 05:14:36;;;;;;;24.15;3.53;;;11.50;99.90;;;;;;4976799;28;20042;-73
2022/10/02 05:17:20;;;;;;;21.42;4.43;;;11.50;99.90;;;;;;4974756;28;20108;-73
2022/10/02 05:20:09;;;;;;;20.67;4.00;;;11.50;99.90;;;;;;4957956;28;20130;-73
2022/10/02 05:22:40;;;;;;;20.02;4.18;;;11.60;99.90;;;;;;4958912;28;20133;-73
2022/10/02 05:25:34;;;;;;;19.38;3.75;;;11.60;99.90;;;;;;4951531;28;20054;-73
2022/10/02 05:28:08;;;;;;;23.30;3.42;;;11.60;99.90;;;;;;4956073;28;20038;-73
2022/10/02 05:31:03;;;;;;;22.52;3.80;;;11.60;99.90;;;;;;4956834;28;20497;-73
2022/10/02 05:33:47;;;;;;;18.73;3.97;;;11.60;99.90;;;;;;4967274;28;20061;-73
2022/10/02 05:36:34;;;;;;;20.08;3.67;;;11.50;99.90;;;;;;4983769;28;20043;-73
2022/10/02 05:39:07;;;;;;;21.65;3.40;;;11.50;99.90;;;;;;4954749;28;20378;-73
2022/10/02 05:42:08;;;;;;;18.35;3.83;;;11.50;99.90;;;;;;4955290;28;20047;-73
2022/10/02 05:44:46;;;;;;;19.83;3.55;;;11.50;99.90;;;;;;4956895;28;20133;-73
2022/10/02 05:47:18;;;;;;;21.35;3.63;;;11.50;99.90;;;;;;4953767;28;20043;-73
2022/10/02 05:49:59;;;;;;;18.98;3.15;;;11.50;99.90;;;;;;4957528;28;20567;-74
2022/10/02 05:52:54;;;;;;;21.70;3.70;;;11.50;99.90;;;;;;4953649;28;20050;-73
2022/10/02 05:55:46;;;;;;;21.15;3.38;;;11.50;99.90;;;;;;4970363;28;20047;-73
2022/10/02 05:58:24;;;;;;;21.60;3.60;;;11.50;99.90;;;;;;4950713;28;20078;-73
2022/10/02 06:01:05;;;;;;;19.63;3.55;;;11.50;99.90;;;;;;4963267;28;20050;-73
2022/10/02 06:03:40;;;;;;;17.60;3.17;;;11.50;99.90;;;;;;4936192;28;20054;-73
2022/10/02 06:06:10;;;;;;;19.83;3.38;;;11.50;99.90;;;;;;4955600;28;20101;-73
2022/10/02 06:08:48;;;;;;;22.80;3.40;;;11.60;99.90;;;;;;4954718;28;20122;-73
2022/10/02 06:11:22;;;;;;;18.33;3.78;;;11.60;99.90;;;;;;4950941;28;20041;-73
2022/10/02 06:14:04;;;;;;;19.50;3.45;;;11.60;99.90;;;;;;4952351;28;20051;-73
2022/10/02 06:16:30;;;;;;;;;;;11.60;99.90;;;;;;4955483;28;20129;-73
2022/10/02 06:19:01;;;;;;;22.02;3.40;;;11.60;99.90;;;;;;4955375;28;20073;-73
2022/10/02 06:21:52;;;;;;;18.05;3.15;;;11.70;99.90;;;;;;4955304;28;20093;-73
2022/10/02 06:24:24;;;;;;;18.38;3.70;;;11.70;99.90;;;;;;4954959;28;20078;-73
2022/10/02 06:27:12;;;;;;;19.27;3.13;;;11.80;99.90;;;;;;4952910;28;20090;-74
2022/10/02 06:29:49;;;;;;;21.00;3.45;;;11.90;99.90;;;;;;4959180;28;20112;-73
2022/10/02 06:32:20;;;;;;;29.13;3.85;;;11.90;99.90;;;;;;4956231;28;20129;-73
2022/10/02 06:34:45;;;;;;;24.05;3.92;;;12.00;99.90;;;;;;4947104;28;20050;-73
2022/10/02 06:37:26;;;;;;;25.25;4.13;;;12.00;99.90;;;;;;4958157;28;20042;-73
2022/10/02 06:40:00;;;;;;;22.35;3.63;;;12.00;99.90;;;;;;4952047;28;20081;-73
2022/10/02 06:42:46;;;;;;;22.88;3.80;;;12.00;99.90;;;;;;4941374;28;20058;-73
2022/10/02 06:45:27;;;;;;;21.90;3.13;;;12.10;99.90;;;;;;4952988;28;20201;-76
2022/10/02 06:48:00;;;;;;;20.55;3.83;;;12.20;99.90;;;;;;4949074;28;20038;-73
2022/10/02 06:50:43;;;;;;;22.73;3.63;;;12.20;99.90;;;;;;4955367;28;20043;-73
2022/10/02 06:53:45;;;;;;;18.35;4.10;;;12.20;99.90;;;;;;4965752;28;20494;-73
2022/10/02 06:56:13;;;;;;;17.80;3.43;;;12.30;99.90;;;;;;4953959;28;20068;-74
2022/10/02 06:59:06;;;;;;;23.88;3.60;;;12.30;99.90;;;;;;4952100;28;20129;-74
2022/10/02 07:02:00;;;;;;;22.85;3.88;;;12.30;99.90;;;;;;4954187;28;20058;-74
2022/10/02 07:05:01;;;;;;;18.85;3.13;;;12.40;99.90;;;;;;4962543;28;20441;-74
2022/10/02 07:07:57;;;;;;;17.95;3.90;;;12.40;99.90;;;;;;4953176;28;20082;-77
2022/10/02 07:10:49;;;;;;;18.88;3.25;;;12.50;99.90;;;;;;4954916;28;20047;-74
2022/10/02 07:13:53;;;;;;;16.05;3.50;;;12.50;99.90;;;;;;4946450;28;20069;-74
2022/10/02 07:16:37;;;;;;;19.67;3.35;;;12.60;99.90;;;;;;4957033;28;20042;-75
2022/10/02 07:19:21;;;;;;;20.05;3.65;;;12.70;99.90;;;;;;4955027;28;20046;-74
2022/10/02 07:22:09;;;;;;;28.13;4.10;;;12.70;99.90;;;;;;4955027;28;20043;-75
2022/10/02 07:24:46;;;;;;;23.45;3.33;;;12.80;99.90;;;;;;4950287;28;20121;-75
2022/10/02 07:27:22;;;;;;;15.63;3.67;;;12.90;99.90;;;;;;4951732;28;20137;-74
2022/10/02 07:30:00;;;;;;;19.38;3.83;;;12.90;99.90;;;;;;4953192;28;20042;-75
2022/10/02 07:32:48;;;;;;;19.85;3.60;;;13.00;99.90;;;;;;4941128;28;20039;-75
2022/10/02 07:35:13;;;;;;;19.30;3.50;;;13.10;99.90;;;;;;4964753;28;20043;-74
2022/10/02 07:38:03;;;;;;;18.08;3.08;;;13.20;99.90;;;;;;4957342;28;20117;-76
2022/10/02 07:41:15;;;;;;;18.15;3.20;;;13.30;99.90;;;;;;4957398;28;20497;-76
2022/10/02 07:43:53;;;;;;;19.27;3.70;;;13.50;99.90;;;;;;4953100;28;20053;-76
2022/10/02 07:46:32;;;;;;;18.25;3.25;;;13.70;99.90;;;;;;4958673;28;20047;-75
2022/10/02 07:49:35;;;;;;;19.95;3.45;;;13.80;99.90;;;;;;4964878;28;20449;-75
2022/10/02 07:52:45;;;;;;;18.33;3.85;;;13.70;99.90;;;;;;4956478;28;20053;-75
2022/10/02 07:55:18;;;;;;;18.08;3.45;;;13.70;99.90;;;;;;4945103;28;20046;-75
2022/10/02 07:57:59;;;;;;;16.00;3.88;;;13.70;99.90;;;;;;4956263;28;20109;-75
2022/10/02 08:00:28;;;;;;;16.50;3.30;;;13.70;99.90;;;;;;4967967;28;20054;-72
2022/10/02 08:02:59;;;;;;;17.02;4.05;;;13.70;99.90;;;;;;4959270;28;20039;-72
2022/10/02 08:05:51;;;;;;;19.50;4.40;;;13.80;99.90;;;;;;4957269;28;20042;-72
2022/10/02 08:08:23;;;;;;;22.95;3.80;;;13.80;99.90;;;;;;4941338;28;20143;-73
2022/10/02 08:10:55;;;;;;;20.13;3.40;;;13.90;99.90;;;;;;4940779;28;20133;-73
2022/10/02 08:13:28;;;;;;;16.50;3.47;;;13.90;99.90;;;;;;4940303;28;20138;-73
2022/10/02 08:15:55;;;;;;;19.65;3.40;;;13.90;99.90;;;;;;4952340;28;20042;-72
2022/10/02 08:18:41;;;;;;;21.17;3.42;;;14.00;99.90;;;;;;4968426;28;20061;-73
2022/10/02 08:21:25;;;;;;;19.23;3.13;;;14.10;99.90;;;;;;4953639;28;20039;-72
2022/10/02 08:24:00;;;;;;;15.88;3.10;;;14.10;99.90;;;;;;4957548;28;20051;-73
2022/10/02 08:26:46;;;;;;;19.35;3.85;;;14.10;99.90;;;;;;4957991;28;20433;-73
2022/10/02 08:29:26;;;;;;;18.70;3.08;;;14.10;99.90;;;;;;4957487;28;20395;-73
2022/10/02 08:31:53;;;;;;;17.75;3.47;;;14.20;99.90;;;;;;4950690;28;20094;-73
2022/10/02 08:34:23;;;;;;;16.33;3.15;;;14.30;99.90;;;;;;4953288;28;20453;-73
2022/10/02 08:37:03;;;;;;;17.08;3.03;;;14.30;99.90;;;;;;4954049;28;20043;-72
2022/10/02 08:39:35;;;;;;;15.85;2.92;;;14.30;99.90;;;;;;4967295;28;20544;-73
2022/10/02 08:42:29;;;;;;;16.13;3.35;;;14.40;99.90;;;;;;4955179;28;20328;-73
2022/10/02 08:45:17;;;;;;;15.90;2.75;;;14.50;99.90;;;;;;4956843;28;20045;-72
2022/10/02 08:48:22;;;;;;;18.92;3.58;;;14.50;99.90;;;;;;4956038;28;20055;-72
2022/10/02 08:51:07;;;;;;;16.85;3.10;;;14.60;99.90;;;;;;4958438;28;20042;-71
2022/10/02 08:53:43;;;;;;;14.82;2.53;;;14.70;99.90;;;;;;4949146;28;20397;-72
2022/10/02 08:56:42;;;;;;;19.95;3.50;;;14.70;99.90;;;;;;4964608;28;20134;-72
2022/10/02 08:59:24;;;;;;;14.32;2.75;;;14.80;99.90;;;;;;4945690;28;20066;-72
2022/10/02 09:02:04;;;;;;;17.63;3.15;;;14.90;99.90;;;;;;4945429;28;20057;-71
2022/10/02 09:04:45;;;;;;;15.80;2.75;;;14.90;99.90;;;;;;4951295;28;20047;-72
2022/10/02 09:07:29;;;;;;;13.38;2.53;;;15.00;99.90;;;;;;4967256;28;20062;-73
2022/10/02 09:10:32;;;;;;;26.38;3.60;;;15.10;99.90;;;;;;4951825;28;20134;-72
2022/10/02 09:13:10;;;;;;;;;;;15.10;99.90;;;;;;4952467;28;20533;-72
2022/10/02 09:15:43;;;;;;;12.35;2.65;;;15.20;99.90;;;;;;4954331;28;20344;-72
2022/10/02 09:18:46;;;;;;;12.70;2.65;;;15.20;99.90;;;;;;4957129;28;20053;-72
2022/10/02 09:21:40;;;;;;;18.15;2.92;;;15.20;99.90;;;;;;4945346;28;20042;-74
2022/10/02 09:24:36;;;;;;;16.88;2.97;;;15.40;99.90;;;;;;4960098;28;20493;-74
2022/10/02 09:27:19;;;;;;;15.55;3.08;;;15.50;99.90;;;;;;4972200;28;20445;-73
2022/10/02 09:30:10;;;;;;;13.13;2.45;;;15.60;99.90;;;;;;4956696;28;20046;-73
2022/10/02 09:32:53;;;;;;;19.95;3.25;;;15.70;99.90;;;;;;4958394;28;20055;-73
2022/10/02 09:36:22;;;;;;;15.13;3.13;;;15.80;99.90;;;;;;4951910;28;20058;-74
2022/10/02 09:39:23;;;;;;;16.50;2.78;;;15.90;99.90;;;;;;4901447;29;20051;-73
2022/10/02 09:42:20;;;;;;;14.55;3.08;;;15.90;99.90;;;;;;4898274;29;20059;-73
2022/10/02 09:44:58;;;;;;;19.05;2.88;;;16.00;99.90;;;;;;4968083;28;20051;-73
2022/10/02 09:48:00;;;;;;;16.85;3.35;;;16.00;99.90;;;;;;4977824;28;20120;-73
2022/10/02 09:50:49;;;;;;;13.38;3.13;;;16.10;99.90;;;;;;4945985;28;20045;-73
2022/10/02 09:53:55;;;;;;;15.00;2.75;;;16.20;99.90;;;;;;4956085;28;20138;-73
2022/10/02 09:56:52;;;;;;;11.20;2.63;;;16.40;99.90;;;;;;4968195;28;20054;-73
2022/10/02 09:59:51;;;;;;;12.98;2.38;;;16.50;99.90;;;;;;4953343;28;20062;-73
2022/10/02 10:02:29;;;;;;;21.55;2.97;;;16.60;99.90;;;;;;4963256;28;20046;-73
2022/10/02 10:05:33;;;;;;;13.43;2.58;;;16.60;99.90;;;;;;4975162;28;20043;-73
2022/10/02 10:08:10;;;;;;;14.43;2.85;;;16.70;99.90;;;;;;4950192;28;20089;-73
2022/10/02 10:10:45;;;;;;;14.95;2.67;;;16.80;99.90;;;;;;4964176;28;20042;-72
2022/10/02 10:13:11;;;;;;;11.95;2.40;;;16.80;99.90;;;;;;4946423;28;20051;-74
2022/10/02 10:15:45;;;;;;;14.38;2.78;;;16.80;99.90;;;;;;4950944;28;20054;-72
2022/10/02 10:18:38;;;;;;;10.95;2.60;;;16.80;99.90;;;;;;4951823;28;20054;-73
2022/10/02 10:21:48;;;;;;;16.30;2.58;;;16.80;99.90;;;;;;4949530;28;20182;-72
2022/10/02 10:24:32;;;;;;;12.65;2.33;;;16.60;99.90;;;;;;4938565;28;20049;-72
2022/10/02 10:27:19;;;;;;;12.02;2.58;;;16.50;99.90;;;;;;4950911;28;20047;-72
2022/10/02 10:29:56;;;;;;;9.00;2.22;;;16.30;99.90;;;;;;4959080;28;20043;-73
2022/10/02 10:32:47;;;;;;;11.77;2.70;;;16.30;99.90;;;;;;4935233;28;20050;-73
2022/10/02 10:35:34;;;;;;;11.70;2.40;;;16.40;99.90;;;;;;4957304;28;20074;-73
2022/10/02 10:38:33;;;;;;;12.82;2.97;;;16.60;99.90;;;;;;4945945;28;20499;-75
2022/10/02 10:41:23;;;;;;;12.25;2.17;;;16.80;99.90;;;;;;4956777;28;20054;-72
2022/10/02 10:44:24;;;;;;;23.98;3.38;;;17.00;99.90;;;;;;4944409;28;20050;-70
2022/10/02 10:47:30;;;;;;;12.57;2.50;;;17.30;99.90;;;;;;4972662;28;20137;-73
2022/10/02 10:50:37;;;;;;;12.73;2.50;;;17.50;99.90;;;;;;4964617;28;20396;-74
2022/10/02 10:53:18;;;;;;;13.05;2.53;;;17.80;99.90;;;;;;4944853;28;20402;-73
2022/10/02 10:56:12;;;;;;;12.93;2.72;;;18.00;99.90;;;;;;4946163;28;20050;-75
2022/10/02 10:59:17;;;;;;;11.82;2.42;;;18.10;99.90;;;;;;4963038;28;20039;-71
2022/10/02 11:02:00;;;;;;;12.05;2.50;;;18.20;99.90;;;;;;4954242;28;20050;-74
2022/10/02 11:04:29;;;;;;;13.55;3.03;;;18.40;99.90;;;;;;4950212;28;20057;-72
2022/10/02 11:07:06;;;;;;;12.93;2.65;;;18.50;99.90;;;;;;4951776;28;20499;-73
2022/10/02 11:09:46;;;;;;;12.40;2.95;;;18.60;99.90;;;;;;4948383;28;20043;-72
2022/10/02 11:12:40;;;;;;;10.25;2.55;;;18.70;99.90;;;;;;4946374;28;20178;-72
2022/10/02 11:15:17;;;;;;;13.50;2.70;;;18.90;99.90;;;;;;4950558;28;20038;-73
2022/10/02 11:18:29;;;;;;;13.38;2.88;;;19.10;99.90;;;;;;4956032;28;20108;-73
2022/10/02 11:21:26;;;;;;;12.80;2.42;;;19.30;99.90;;;;;;4896330;29;20048;-71
2022/10/02 11:24:17;;;;;;;12.43;2.25;;;19.40;99.90;;;;;;4955163;28;20050;-73
2022/10/02 11:27:01;;;;;;;12.00;2.50;;;19.60;99.90;;;;;;4950301;28;20059;-75
2022/10/02 11:29:48;;;;;;;9.88;2.33;;;19.60;99.90;;;;;;4964449;28;20053;-75
2022/10/02 11:32:30;;;;;;;11.60;2.20;;;19.40;99.90;;;;;;4945357;28;20049;-74
2022/10/02 11:35:18;;;;;;;12.02;2.65;;;19.20;99.90;;;;;;4946378;28;20425;-75
2022/10/02 11:38:04;;;;;;;10.52;2.20;;;19.00;99.90;;;;;;4968289;28;20047;-74
2022/10/02 11:40:39;;;;;;;14.82;2.95;;;18.60;99.90;;;;;;4944659;28;20203;-75
2022/10/02 11:43:19;;;;;;;13.52;2.72;;;18.30;99.90;;;;;;4948978;28;20057;-75
2022/10/02 11:46:11;;;;;;;10.77;2.40;;;17.80;99.90;;;;;;4944719;28;20043;-74
2022/10/02 11:49:11;;;;;;;11.68;2.53;;;17.60;99.90;;;;;;4948373;28;20046;-76
2022/10/02 11:52:02;;;;;;;13.70;2.95;;;17.40;99.90;;;;;;4947975;28;20502;-74
2022/10/02 11:54:53;;;;;;;14.35;3.05;;;17.30;99.90;;;;;;4966146;28;20045;-75
2022/10/02 11:57:33;;;;;;;15.32;3.03;;;17.10;99.90;;;;;;4968774;28;20046;-75
2022/10/02 12:00:14;;;;;;;14.50;3.20;;;17.00;99.90;;;;;;4951426;28;20173;-74
2022/10/02 12:03:00;;;;;;;14.32;3.17;;;17.00;99.90;;;;;;4948559;28;20043;-75
2022/10/02 12:05:33;;;;;;;13.50;2.80;;;17.00;99.90;;;;;;4945887;28;20070;-77
2022/10/02 12:08:09;;;;;;;18.88;2.95;;;17.20;99.90;;;;;;4950812;28;20134;-75
2022/10/02 12:10:47;;;;;;;16.52;3.60;;;17.50;99.90;;;;;;4947986;28;20113;-75
2022/10/02 12:13:34;;;;;;;16.75;2.80;;;17.80;99.90;;;;;;4928992;28;20496;-75
2022/10/02 12:16:18;;;;;;;13.30;2.60;;;18.30;99.90;;;;;;4953466;28;20042;-76
2022/10/02 12:19:14;;;;;;;13.60;2.63;;;18.80;99.90;;;;;;4951872;28;20050;-76
2022/10/02 12:28:03;;;;;;;293.05;15.32;;;20.00;99.90;;;;;;4952488;28;20080;-78
2022/10/02 12:30:38;;;;;;;13.90;2.30;;;20.20;99.90;;;;;;4957960;28;20066;-73
2022/10/02 12:33:26;;;;;;;112.97;16.95;;;20.60;99.90;;;;;;4951341;28;20047;-74
2022/10/02 12:36:41;;;;;;;36.50;5.65;;;20.80;99.90;;;;;;4949373;28;20050;-75
2022/10/02 12:39:20;;;;;;;12.52;3.00;;;21.20;99.90;;;;;;4964452;28;20061;-77
2022/10/02 12:42:10;;;;;;;1999.90;612.60;;;21.50;99.90;;;;;;4957998;28;20097;-76
2022/10/02 12:45:07;;;;;;;15.77;4.22;;;21.60;99.90;;;;;;4952608;28;20058;-75
2022/10/02 12:48:00;;;;;;;1588.88;232.05;;;21.60;98.90;;;;;;4953907;28;20042;-76
2022/10/02 12:50:54;;;;;;;160.05;24.75;;;21.20;98.20;;;;;;4950285;28;20043;-75
2022/10/02 12:53:43;;;;;;;22.13;4.10;;;20.70;98.20;;;;;;4951670;28;20062;-75
2022/10/02 12:56:40;;;;;;;813.75;152.18;;;20.20;98.80;;;;;;4968365;28;20053;-75
2022/10/02 12:59:13;;;;;;;42.03;11.45;;;19.80;99.10;;;;;;4949970;28;20038;-74
2022/10/02 13:02:28;;;;;;;20.10;3.83;;;19.50;99.90;;;;;;4949598;28;20047;-76
2022/10/02 13:05:22;;;;;;;16.88;3.33;;;19.20;99.90;;;;;;4929637;28;20054;-77
2022/10/02 13:08:13;;;;;;;19.15;2.72;;;19.20;99.90;;;;;;4950458;28;20525;-77
2022/10/02 13:10:48;;;;;;;13.85;2.88;;;19.30;99.90;;;;;;4953319;28;20035;-76
2022/10/02 13:13:34;;;;;;;13.48;2.75;;;19.20;99.90;;;;;;4953059;28;20043;-79
2022/10/02 13:16:34;;;;;;;12.45;2.67;;;19.00;99.90;;;;;;4964730;28;20498;-76
2022/10/02 13:19:18;;;;;;;9.95;2.78;;;19.00;99.90;;;;;;4957806;28;20044;-77
2022/10/02 13:21:58;;;;;;;13.27;2.83;;;18.90;99.90;;;;;;4941984;28;20053;-78
2022/10/02 13:24:42;;;;;;;599.38;73.25;;;18.60;99.90;;;;;;4945570;28;20067;-77
2022/10/02 13:27:26;;;;;;;135.43;15.05;;;18.40;99.90;;;;;;4952344;28;20042;-72
2022/10/02 13:30:18;;;;;;;186.98;23.85;;;18.70;99.90;;;;;;4961687;28;22018;-76
2022/10/02 13:32:47;;;;;;;36.08;5.05;;;19.10;99.90;;;;;;4947361;28;20042;-75
2022/10/02 13:35:43;;;;;;;171.55;10.90;;;19.70;99.90;;;;;;4966078;28;20130;-75
2022/10/02 13:38:31;;;;;;;19.17;3.42;;;20.20;99.90;;;;;;4961003;28;20097;-75
2022/10/02 13:41:15;;;;;;;9.90;2.65;;;20.80;99.90;;;;;;4953928;28;20046;-74
2022/10/02 13:44:05;;;;;;;11.20;2.53;;;21.30;98.00;;;;;;4951149;28;20525;-76
2022/10/02 13:46:56;;;;;;;9.70;2.28;;;21.60;98.50;;;;;;4967673;28;20089;-77
2022/10/02 13:49:38;;;;;;;23.30;2.60;;;21.50;97.80;;;;;;4936041;28;20077;-75
2022/10/02 13:52:30;;;;;;;1452.28;182.38;;;21.50;97.90;;;;;;4953663;28;20038;-75
2022/10/02 13:55:07;;;;;;;56.17;8.43;;;21.70;98.80;;;;;;4951565;28;20099;-75
2022/10/02 13:57:52;;;;;;;1999.90;325.58;;;22.20;98.50;;;;;;4951555;28;20046;-74
2022/10/02 14:00:48;;;;;;;28.50;3.55;;;22.70;97.00;;;;;;4962612;28;20106;-77
2022/10/02 14:03:38;;;;;;;125.38;12.15;;;23.00;91.10;;;;;;4939608;28;20109;-77